createdAt,value
2018-04-14T00:00:08.135Z,86.40
2018-04-14T00:01:05.766Z,86.40
2018-04-14T00:02:06.283Z,86.30
2018-04-14T00:03:06.603Z,86.30
2018-04-14T00:04:11.261Z,86.40
2018-04-14T00:05:05.880Z,86.30
2018-04-14T00:06:05.902Z,86.40
2018-04-14T00:07:06.516Z,86.40
2018-04-14T00:08:11.151Z,86.40
2018-04-14T00:09:10.669Z,86.50
2018-04-14T00:10:08.623Z,86.50
2018-04-14T00:11:06.177Z,86.50
2018-04-14T00:12:07.997Z,86.30
2018-04-14T00:13:11.487Z,86.30
2018-04-14T00:14:06.439Z,86.30
2018-04-14T00:15:05.723Z,86.40
2018-04-14T00:16:06.524Z,86.40
2018-04-14T00:17:05.719Z,86.30
2018-04-14T00:18:05.811Z,86.20
2018-04-14T00:19:05.552Z,86.40
2018-04-14T00:20:06.031Z,86.40
2018-04-14T00:21:10.855Z,86.30
2018-04-14T00:22:11.599Z,86.30
2018-04-14T00:23:08.487Z,86.30
2018-04-14T00:24:11.214Z,86.20
2018-04-14T00:25:05.823Z,86.20
2018-04-14T00:26:11.433Z,86.20
2018-04-14T00:27:05.788Z,86.20
2018-04-14T00:28:06.090Z,86.10
2018-04-14T00:29:06.377Z,86.10
2018-04-14T00:30:08.783Z,86.10
2018-04-14T00:31:06.332Z,86.10
2018-04-14T00:32:08.660Z,86.10
2018-04-14T00:33:06.315Z,86.10
2018-04-14T00:34:06.269Z,86.10
2018-04-14T00:35:05.699Z,86.10
2018-04-14T00:36:06.591Z,86.20
2018-04-14T00:37:06.768Z,86.10
2018-04-14T00:38:13.314Z,86.10
2018-04-14T00:39:13.410Z,86.10
2018-04-14T00:40:06.011Z,86.10
2018-04-14T00:41:05.728Z,86.00
2018-04-14T00:42:05.868Z,86.10
2018-04-14T00:43:05.929Z,86.10
2018-04-14T00:44:06.659Z,86.10
2018-04-14T00:45:08.949Z,86.30
2018-04-14T00:46:08.928Z,86.10
2018-04-14T00:47:06.593Z,86.10
2018-04-14T00:48:08.951Z,86.10
2018-04-14T00:49:11.112Z,86.20
2018-04-14T00:50:11.030Z,86.00
2018-04-14T00:51:06.852Z,86.00
2018-04-14T00:52:11.564Z,86.10
2018-04-14T00:53:06.113Z,86.10
2018-04-14T00:54:09.353Z,86.10
2018-04-14T00:55:10.953Z,86.10
2018-04-14T00:56:11.291Z,86.00
2018-04-14T00:57:08.692Z,85.90
2018-04-14T00:58:11.275Z,85.90
2018-04-14T00:59:10.803Z,85.90
2018-04-14T01:00:06.054Z,85.80
2018-04-14T01:01:05.755Z,85.70
2018-04-14T01:02:05.866Z,85.60
2018-04-14T01:03:06.124Z,85.60
2018-04-14T01:04:06.175Z,85.50
2018-04-14T01:05:09.018Z,85.50
2018-04-14T01:06:05.487Z,85.50
2018-04-14T01:07:11.331Z,85.50
2018-04-14T01:08:05.810Z,85.50
2018-04-14T01:09:09.067Z,85.50
2018-04-14T01:10:06.016Z,85.60
2018-04-14T01:11:11.022Z,85.70
2018-04-14T01:12:13.195Z,85.70
2018-04-14T01:13:10.790Z,85.70
2018-04-14T01:14:11.145Z,85.90
2018-04-14T01:15:08.961Z,86.00
2018-04-14T01:16:10.503Z,86.00
2018-04-14T01:17:11.053Z,86.10
2018-04-14T01:18:05.982Z,86.20
2018-04-14T01:19:11.614Z,86.30
2018-04-14T01:20:11.162Z,86.30
2018-04-14T01:21:05.822Z,86.30
2018-04-14T01:22:05.927Z,86.40
2018-04-14T01:23:06.282Z,86.40
2018-04-14T01:24:06.277Z,86.40
2018-04-14T01:25:05.727Z,86.20
2018-04-14T01:26:06.440Z,86.30
2018-04-14T01:27:10.574Z,86.50
2018-04-14T01:28:08.478Z,86.40
2018-04-14T01:29:06.044Z,86.40
2018-04-14T01:30:08.538Z,86.40
2018-04-14T01:31:06.211Z,86.40
2018-04-14T01:32:05.735Z,86.40
2018-04-14T01:33:06.520Z,86.40
2018-04-14T01:34:08.833Z,86.40
2018-04-14T01:35:06.789Z,86.40
2018-04-14T01:36:11.465Z,86.40
2018-04-14T01:37:10.986Z,86.40
2018-04-14T01:38:06.382Z,86.40
2018-04-14T01:39:06.370Z,86.50
2018-04-14T01:40:11.736Z,86.50
2018-04-14T01:41:06.303Z,86.60
2018-04-14T01:42:05.903Z,86.60
2018-04-14T01:43:10.886Z,86.60
2018-04-14T01:44:11.229Z,86.70
2018-04-14T01:45:10.846Z,86.60
2018-04-14T01:46:11.364Z,86.70
2018-04-14T01:47:05.896Z,86.70
2018-04-14T01:48:06.749Z,86.90
2018-04-14T01:49:05.758Z,86.80
2018-04-14T01:50:05.964Z,86.60
2018-04-14T01:51:08.132Z,86.70
2018-04-14T01:52:13.181Z,86.60
2018-04-14T01:53:05.648Z,86.60
2018-04-14T01:54:05.954Z,86.70
2018-04-14T01:55:05.780Z,86.40
2018-04-14T01:56:06.687Z,86.40
2018-04-14T01:57:08.716Z,86.40
2018-04-14T01:58:11.383Z,86.30
2018-04-14T01:59:06.119Z,86.30
2018-04-14T02:00:08.068Z,86.20
2018-04-14T02:01:09.172Z,86.20
2018-04-14T02:02:05.711Z,86.20
2018-04-14T02:03:06.527Z,86.10
2018-04-14T02:04:05.693Z,86.10
2018-04-14T02:05:11.289Z,86.10
2018-04-14T02:06:06.192Z,86.20
2018-04-14T02:07:05.801Z,86.10
2018-04-14T02:08:05.976Z,86.10
2018-04-14T02:09:10.544Z,86.10
2018-04-14T02:10:11.018Z,86.10
2018-04-14T02:11:10.527Z,86.00
2018-04-14T02:12:06.066Z,85.90
2018-04-14T02:13:05.853Z,85.90
2018-04-14T02:14:10.668Z,85.90
2018-04-14T02:15:05.995Z,85.80
2018-04-14T02:16:10.594Z,85.70
2018-04-14T02:17:11.085Z,85.60
2018-04-14T02:18:05.797Z,85.60
2018-04-14T02:19:08.765Z,85.50
2018-04-14T02:20:08.780Z,85.40
2018-04-14T02:21:06.466Z,85.40
2018-04-14T02:22:11.206Z,85.30
2018-04-14T02:23:05.819Z,85.30
2018-04-14T02:24:10.723Z,85.10
2018-04-14T02:25:06.075Z,85.10
2018-04-14T02:26:06.387Z,85.10
2018-04-14T02:27:06.631Z,85.00
2018-04-14T02:28:06.105Z,85.00
2018-04-14T02:29:06.177Z,84.90
2018-04-14T02:30:05.521Z,84.90
2018-04-14T02:31:06.518Z,84.90
2018-04-14T02:32:11.168Z,84.90
2018-04-14T02:33:05.672Z,84.90
2018-04-14T02:34:08.922Z,84.80
2018-04-14T02:35:08.953Z,84.70
2018-04-14T02:36:06.660Z,84.80
2018-04-14T02:37:13.505Z,84.70
2018-04-14T02:38:06.133Z,84.70
2018-04-14T02:39:09.327Z,84.50
2018-04-14T02:40:05.826Z,84.50
2018-04-14T02:41:06.784Z,84.50
2018-04-14T02:42:08.934Z,84.50
2018-04-14T02:43:06.484Z,84.50
2018-04-14T02:44:05.823Z,84.50
2018-04-14T02:45:06.452Z,84.40
2018-04-14T02:46:05.587Z,84.40
2018-04-14T02:47:06.455Z,84.40
2018-04-14T02:48:05.851Z,84.20
2018-04-14T02:49:08.142Z,84.20
2018-04-14T02:50:06.134Z,84.20
2018-04-14T02:51:08.268Z,84.20
2018-04-14T02:52:05.714Z,84.20
2018-04-14T02:53:06.479Z,84.10
2018-04-14T02:54:05.990Z,84.10
2018-04-14T02:55:06.116Z,84.10
2018-04-14T02:56:06.245Z,84.10
2018-04-14T02:57:06.213Z,84.10
2018-04-14T02:58:10.131Z,84.10
2018-04-14T02:59:10.881Z,84.10
2018-04-14T03:00:11.569Z,84.10
2018-04-14T03:01:05.930Z,84.00
2018-04-14T03:02:05.802Z,84.00
2018-04-14T03:03:06.248Z,84.10
2018-04-14T03:04:11.636Z,84.00
2018-04-14T03:05:06.166Z,84.10
2018-04-14T03:06:11.194Z,84.00
2018-04-14T03:07:05.795Z,84.00
2018-04-14T03:08:11.497Z,84.00
2018-04-14T03:09:10.970Z,84.00
2018-04-14T03:10:08.704Z,84.00
2018-04-14T03:11:11.221Z,84.00
2018-04-14T03:12:08.830Z,84.10
2018-04-14T03:13:06.608Z,84.10
2018-04-14T03:14:06.249Z,84.00
2018-04-14T03:15:08.941Z,84.00
2018-04-14T03:16:05.537Z,84.00
2018-04-14T03:17:06.482Z,84.00
2018-04-14T03:18:05.646Z,84.10
2018-04-14T03:19:11.445Z,84.00
2018-04-14T03:20:06.216Z,84.00
2018-04-14T03:21:05.959Z,84.10
2018-04-14T03:22:05.764Z,84.10
2018-04-14T03:23:10.953Z,84.10
2018-04-14T03:24:14.050Z,84.10
2018-04-14T03:25:05.636Z,84.00
2018-04-14T03:26:08.965Z,84.00
2018-04-14T03:27:10.650Z,84.00
2018-04-14T03:28:06.397Z,84.00
2018-04-14T03:29:06.168Z,84.00
2018-04-14T03:30:11.059Z,84.00
2018-04-14T03:31:05.914Z,84.00
2018-04-14T03:32:05.554Z,83.90
2018-04-14T03:33:08.309Z,83.80
2018-04-14T03:34:05.918Z,83.80
2018-04-14T03:35:06.118Z,83.80
2018-04-14T03:36:08.918Z,83.80
2018-04-14T03:37:07.964Z,83.70
2018-04-14T03:38:06.435Z,83.70
2018-04-14T03:39:05.524Z,83.50
2018-04-14T03:40:11.275Z,83.50
2018-04-14T03:41:05.920Z,83.50
2018-04-14T03:42:10.575Z,83.30
2018-04-14T03:43:11.215Z,83.30
2018-04-14T03:44:06.832Z,83.30
2018-04-14T03:45:05.845Z,83.20
2018-04-14T03:46:05.687Z,83.20
2018-04-14T03:47:10.052Z,83.00
2018-04-14T03:48:10.768Z,83.00
2018-04-14T03:49:06.189Z,82.90
2018-04-14T03:50:06.143Z,82.80
2018-04-14T03:51:05.908Z,82.70
2018-04-14T03:52:11.443Z,82.60
2018-04-14T03:53:05.872Z,82.30
2018-04-14T03:54:05.841Z,82.30
2018-04-14T03:55:09.054Z,82.20
2018-04-14T03:56:10.741Z,82.20
2018-04-14T03:57:06.243Z,82.20
2018-04-14T03:58:11.594Z,81.70
2018-04-14T03:59:11.152Z,81.70
2018-04-14T04:00:10.676Z,81.70
2018-04-14T04:01:06.263Z,81.70
2018-04-14T04:02:06.252Z,81.70
2018-04-14T04:03:06.150Z,81.70
2018-04-14T04:04:05.728Z,81.70
2018-04-14T04:05:06.216Z,81.60
2018-04-14T04:06:06.175Z,81.60
2018-04-14T04:07:09.178Z,81.60
2018-04-14T04:08:08.628Z,81.60
2018-04-14T04:09:08.659Z,81.70
2018-04-14T04:10:11.196Z,81.70
2018-04-14T04:11:08.463Z,81.60
2018-04-14T04:12:06.246Z,81.60
2018-04-14T04:13:11.277Z,81.60
2018-04-14T04:14:10.803Z,81.50
2018-04-14T04:15:05.973Z,81.50
2018-04-14T04:16:05.632Z,81.40
2018-04-14T04:17:11.082Z,81.50
2018-04-14T04:18:05.602Z,81.50
2018-04-14T04:19:07.599Z,81.30
2018-04-14T04:20:06.569Z,81.10
2018-04-14T04:21:06.103Z,80.90
2018-04-14T04:22:10.996Z,80.80
2018-04-14T04:23:08.133Z,80.60
2018-04-14T04:24:05.634Z,80.70
2018-04-14T04:25:11.492Z,80.60
2018-04-14T04:26:05.915Z,80.70
2018-04-14T04:27:11.171Z,80.70
2018-04-14T04:28:05.780Z,80.70
2018-04-14T04:29:18.169Z,80.60
2018-04-14T04:30:08.478Z,80.60
2018-04-14T04:31:11.052Z,80.60
2018-04-14T04:32:06.422Z,80.60
2018-04-14T04:33:05.960Z,80.70
2018-04-14T04:34:06.602Z,80.60
2018-04-14T04:35:05.868Z,80.70
2018-04-14T04:36:10.972Z,80.70
2018-04-14T04:37:06.222Z,80.70
2018-04-14T04:38:05.810Z,80.70
2018-04-14T04:39:11.135Z,80.70
2018-04-14T04:40:05.913Z,80.70
2018-04-14T04:41:05.913Z,80.70
2018-04-14T04:42:06.522Z,80.70
2018-04-14T04:43:06.327Z,80.50
2018-04-14T04:44:08.971Z,80.40
2018-04-14T04:45:05.598Z,80.40
2018-04-14T04:46:10.725Z,80.10
2018-04-14T04:47:11.087Z,80.00
2018-04-14T04:48:06.758Z,80.00
2018-04-14T04:49:08.962Z,80.10
2018-04-14T04:50:05.571Z,80.10
2018-04-14T04:51:06.272Z,79.90
2018-04-14T04:52:06.370Z,79.90
2018-04-14T04:53:06.028Z,79.80
2018-04-14T04:54:08.339Z,79.70
2018-04-14T04:55:06.143Z,79.70
2018-04-14T04:56:05.648Z,79.70
2018-04-14T04:57:05.550Z,79.80
2018-04-14T04:58:06.521Z,79.70
2018-04-14T04:59:08.605Z,79.60
2018-04-14T05:00:06.340Z,79.60
2018-04-14T05:01:06.502Z,79.50
2018-04-14T05:02:06.354Z,79.40
2018-04-14T05:03:06.010Z,79.10
2018-04-14T05:04:06.541Z,79.10
2018-04-14T05:05:08.740Z,79.00
2018-04-14T05:06:06.450Z,79.10
2018-04-14T05:07:11.082Z,79.00
2018-04-14T05:08:10.801Z,79.10
2018-04-14T05:09:06.330Z,79.10
2018-04-14T05:10:08.943Z,78.80
2018-04-14T05:11:05.960Z,78.80
2018-04-14T05:12:05.897Z,78.80
2018-04-14T05:13:11.092Z,78.80
2018-04-14T05:14:06.702Z,78.90
2018-04-14T05:15:06.624Z,78.80
2018-04-14T05:16:06.021Z,78.70
2018-04-14T05:17:06.052Z,78.70
2018-04-14T05:18:11.351Z,78.70
2018-04-14T05:19:05.842Z,78.70
2018-04-14T05:20:08.121Z,78.80
2018-04-14T05:21:05.620Z,78.90
2018-04-14T05:22:05.730Z,78.90
2018-04-14T05:23:06.085Z,78.80
2018-04-14T05:24:06.070Z,78.70
2018-04-14T05:25:10.599Z,78.50
2018-04-14T05:26:06.078Z,78.50
2018-04-14T05:27:10.960Z,78.40
2018-04-14T05:28:08.983Z,78.10
2018-04-14T05:29:10.665Z,78.10
2018-04-14T05:30:06.453Z,78.10
2018-04-14T05:31:11.222Z,78.00
2018-04-14T05:32:10.726Z,78.10
2018-04-14T05:33:06.178Z,78.10
2018-04-14T05:34:06.666Z,78.30
2018-04-14T05:35:05.664Z,78.20
2018-04-14T05:36:08.588Z,77.50
2018-04-14T05:37:11.615Z,77.70
2018-04-14T05:38:05.899Z,77.70
2018-04-14T05:39:05.744Z,78.00
2018-04-14T05:40:08.694Z,77.60
2018-04-14T05:41:06.107Z,77.60
2018-04-14T05:42:06.515Z,77.10
2018-04-14T05:43:16.486Z,75.80
2018-04-14T05:44:11.045Z,75.70
2018-04-14T05:45:06.702Z,75.70
2018-04-14T05:46:06.110Z,75.10
2018-04-14T05:47:05.910Z,74.50
2018-04-14T05:48:06.285Z,73.80
2018-04-14T05:49:06.128Z,73.70
2018-04-14T05:50:13.389Z,73.40
2018-04-14T05:51:06.155Z,73.40
2018-04-14T05:52:08.963Z,72.20
2018-04-14T05:53:06.476Z,72.20
2018-04-14T05:54:06.458Z,69.80
2018-04-14T05:55:06.387Z,68.60
2018-04-14T05:56:10.697Z,68.80
2018-04-14T05:57:06.353Z,68.90
2018-04-14T05:58:05.881Z,68.70
2018-04-14T05:59:06.112Z,68.30
2018-04-14T06:00:05.967Z,68.40
2018-04-14T06:01:05.645Z,68.30
2018-04-14T06:02:08.161Z,67.00
2018-04-14T06:03:05.676Z,66.90
2018-04-14T06:04:08.489Z,65.60
2018-04-14T06:05:06.044Z,65.40
2018-04-14T06:06:05.889Z,64.50
2018-04-14T06:07:08.479Z,63.30
2018-04-14T06:08:05.952Z,63.30
2018-04-14T06:09:08.212Z,63.30
2018-04-14T06:10:05.824Z,63.30
2018-04-14T06:11:05.807Z,63.00
2018-04-14T06:12:10.765Z,63.10
2018-04-14T06:13:06.141Z,62.10
2018-04-14T06:14:05.942Z,60.60
2018-04-14T06:15:06.091Z,59.00
2018-04-14T06:16:06.268Z,58.70
2018-04-14T06:17:10.115Z,58.00
2018-04-14T06:18:05.739Z,57.90
2018-04-14T06:19:09.049Z,57.50
2018-04-14T06:20:08.241Z,57.40
2018-04-14T06:21:05.737Z,57.50
2018-04-14T06:22:06.584Z,57.30
2018-04-14T06:23:08.896Z,57.60
2018-04-14T06:24:11.785Z,57.50
2018-04-14T06:25:06.154Z,57.10
2018-04-14T06:26:10.980Z,56.30
2018-04-14T06:27:06.719Z,56.30
2018-04-14T06:28:17.117Z,56.10
2018-04-14T06:29:09.974Z,55.60
2018-04-14T06:30:05.741Z,55.70
2018-04-14T06:31:10.964Z,55.70
2018-04-14T06:32:06.535Z,55.70
2018-04-14T06:33:08.736Z,54.50
2018-04-14T06:34:07.390Z,54.50
2018-04-14T06:35:06.054Z,53.80
2018-04-14T06:36:06.259Z,54.00
2018-04-14T06:37:05.979Z,54.20
2018-04-14T06:38:06.278Z,53.80
2018-04-14T06:39:05.687Z,53.30
2018-04-14T06:40:07.160Z,53.60
2018-04-14T06:41:08.283Z,52.60
2018-04-14T06:42:06.285Z,52.70
2018-04-14T06:43:08.420Z,51.80
2018-04-14T06:44:06.574Z,51.70
2018-04-14T06:45:06.500Z,49.80
2018-04-14T06:46:11.665Z,49.80
2018-04-14T06:47:16.479Z,49.90
2018-04-14T06:48:06.391Z,49.90
2018-04-14T06:49:11.097Z,50.20
2018-04-14T06:50:05.880Z,50.20
2018-04-14T06:51:10.645Z,49.90
2018-04-14T06:52:10.975Z,49.80
2018-04-14T06:53:06.363Z,48.80
2018-04-14T06:54:06.580Z,48.60
2018-04-14T06:55:09.437Z,48.30
2018-04-14T06:56:06.000Z,48.30
2018-04-14T06:57:05.951Z,48.20
2018-04-14T06:58:09.248Z,47.90
2018-04-14T06:59:06.361Z,48.00
2018-04-14T07:00:06.469Z,48.10
2018-04-14T07:01:06.060Z,48.10
2018-04-14T07:02:05.705Z,48.40
2018-04-14T07:03:05.755Z,48.30
2018-04-14T07:04:11.661Z,48.20
2018-04-14T07:05:07.161Z,48.40
2018-04-14T07:06:10.878Z,47.80
2018-04-14T07:07:06.336Z,47.90
2018-04-14T07:08:06.245Z,47.60
2018-04-14T07:09:05.827Z,47.40
2018-04-14T07:10:10.683Z,47.50
2018-04-14T07:11:06.291Z,47.40
2018-04-14T07:12:06.316Z,47.60
2018-04-14T07:13:06.502Z,47.50
2018-04-14T07:14:05.621Z,47.10
2018-04-14T07:15:11.217Z,47.00
2018-04-14T07:16:05.715Z,47.00
2018-04-14T07:17:10.728Z,47.40
2018-04-14T07:18:08.845Z,47.80
2018-04-14T07:19:06.826Z,47.80
2018-04-14T07:20:05.866Z,47.90
2018-04-14T07:21:12.615Z,47.70
2018-04-14T07:22:06.331Z,47.80
2018-04-14T07:23:05.991Z,47.80
2018-04-14T07:24:09.356Z,47.40
2018-04-14T07:25:10.941Z,47.40
2018-04-14T07:26:06.179Z,46.90
2018-04-14T07:27:06.249Z,46.80
2018-04-14T07:28:11.083Z,47.20
2018-04-14T07:29:10.776Z,47.40
2018-04-14T07:30:11.345Z,47.40
2018-04-14T07:31:09.316Z,47.30
2018-04-14T07:32:06.779Z,47.30
2018-04-14T07:33:08.380Z,46.90
2018-04-14T07:34:06.310Z,46.90
2018-04-14T07:35:05.673Z,46.30
2018-04-14T07:36:11.632Z,46.60
2018-04-14T07:37:06.318Z,47.00
2018-04-14T07:38:10.956Z,46.90
2018-04-14T07:39:06.329Z,46.80
2018-04-14T07:40:06.364Z,47.00
2018-04-14T07:41:09.282Z,47.30
2018-04-14T07:42:06.067Z,47.20
2018-04-14T07:43:10.727Z,47.10
2018-04-14T07:44:06.564Z,46.70
2018-04-14T07:45:06.063Z,46.20
2018-04-14T07:46:06.316Z,46.90
2018-04-14T07:47:06.182Z,47.10
2018-04-14T07:48:06.349Z,47.20
2018-04-14T07:49:05.868Z,47.10
2018-04-14T07:50:06.554Z,46.60
2018-04-14T07:51:09.709Z,46.40
2018-04-14T07:52:06.189Z,46.50
2018-04-14T07:53:06.875Z,46.50
2018-04-14T07:54:06.221Z,46.10
2018-04-14T07:55:06.756Z,45.70
2018-04-14T07:56:06.421Z,45.90
2018-04-14T07:57:09.416Z,45.20
2018-04-14T07:58:10.940Z,45.20
2018-04-14T07:59:06.339Z,45.20
2018-04-14T08:00:08.272Z,45.90
2018-04-14T08:01:11.039Z,46.10
2018-04-14T08:02:05.782Z,46.20
2018-04-14T08:03:08.305Z,46.50
2018-04-14T08:04:09.409Z,46.30
2018-04-14T08:05:13.727Z,46.40
2018-04-14T08:06:06.385Z,46.40
2018-04-14T08:07:05.622Z,46.40
2018-04-14T08:08:07.675Z,46.00
2018-04-14T08:09:06.475Z,45.80
2018-04-14T08:10:06.045Z,45.90
2018-04-14T08:11:06.264Z,46.50
2018-04-14T08:12:06.572Z,46.30
2018-04-14T08:13:06.482Z,46.50
2018-04-14T08:14:06.148Z,46.10
2018-04-14T08:15:05.632Z,45.70
2018-04-14T08:16:06.529Z,45.00
2018-04-14T08:17:05.998Z,44.90
2018-04-14T08:18:09.069Z,44.60
2018-04-14T08:19:08.182Z,45.10
2018-04-14T08:20:06.303Z,45.10
2018-04-14T08:21:06.148Z,45.20
2018-04-14T08:22:05.747Z,45.60
2018-04-14T08:23:11.669Z,45.30
2018-04-14T08:24:06.345Z,45.20
2018-04-14T08:25:10.829Z,46.10
2018-04-14T08:26:09.974Z,46.10
2018-04-14T08:27:11.556Z,45.70
2018-04-14T08:28:06.366Z,45.70
2018-04-14T08:29:11.211Z,45.80
2018-04-14T08:30:06.801Z,45.40
2018-04-14T08:31:09.491Z,45.50
2018-04-14T08:32:11.405Z,45.50
2018-04-14T08:33:11.140Z,45.40
2018-04-14T08:34:05.827Z,45.30
2018-04-14T08:35:11.464Z,45.00
2018-04-14T08:36:06.214Z,45.10
2018-04-14T08:37:11.267Z,44.70
2018-04-14T08:38:06.245Z,44.60
2018-04-14T08:39:11.273Z,44.90
2018-04-14T08:40:05.483Z,44.90
2018-04-14T08:41:11.028Z,44.30
2018-04-14T08:42:11.533Z,44.70
2018-04-14T08:43:06.726Z,45.30
2018-04-14T08:44:10.871Z,44.70
2018-04-14T08:45:06.932Z,44.60
2018-04-14T08:46:11.030Z,44.90
2018-04-14T08:47:05.547Z,44.90
2018-04-14T08:48:05.947Z,45.10
2018-04-14T08:49:08.886Z,44.80
2018-04-14T08:50:06.453Z,44.80
2018-04-14T08:51:06.714Z,45.40
2018-04-14T08:52:06.237Z,45.70
2018-04-14T08:53:06.120Z,45.30
2018-04-14T08:54:11.406Z,45.10
2018-04-14T08:55:06.312Z,45.30
2018-04-14T08:56:06.185Z,45.10
2018-04-14T08:57:09.409Z,44.10
2018-04-14T08:58:06.011Z,44.20
2018-04-14T08:59:05.956Z,44.20
2018-04-14T09:00:08.342Z,43.90
2018-04-14T09:01:08.819Z,43.70
2018-04-14T09:02:06.948Z,43.60
2018-04-14T09:03:10.655Z,43.80
2018-04-14T09:04:05.902Z,43.70
2018-04-14T09:05:06.301Z,43.80
2018-04-14T09:06:06.258Z,44.00
2018-04-14T09:07:05.565Z,44.20
2018-04-14T09:08:06.612Z,44.00
2018-04-14T09:09:06.330Z,43.80
2018-04-14T09:10:06.029Z,43.50
2018-04-14T09:11:05.999Z,44.00
2018-04-14T09:12:10.780Z,44.70
2018-04-14T09:13:06.496Z,44.80
2018-04-14T09:14:10.885Z,44.70
2018-04-14T09:15:06.569Z,44.70
2018-04-14T09:16:06.361Z,45.00
2018-04-14T09:17:05.950Z,45.30
2018-04-14T09:18:06.559Z,45.20
2018-04-14T09:19:09.629Z,44.90
2018-04-14T09:20:11.436Z,45.00
2018-04-14T09:21:10.274Z,45.10
2018-04-14T09:22:11.132Z,45.20
2018-04-14T09:23:06.094Z,45.20
2018-04-14T09:24:09.092Z,44.80
2018-04-14T09:25:08.375Z,45.10
2018-04-14T09:26:09.493Z,44.40
2018-04-14T09:27:06.212Z,44.30
2018-04-14T09:28:06.276Z,44.00
2018-04-14T09:29:05.883Z,44.20
2018-04-14T09:30:06.424Z,44.00
2018-04-14T09:31:06.050Z,44.20
2018-04-14T09:32:10.788Z,43.70
2018-04-14T09:33:06.299Z,43.80
2018-04-14T09:34:06.026Z,43.60
2018-04-14T09:35:05.821Z,43.60
2018-04-14T09:36:11.505Z,44.70
2018-04-14T09:37:08.629Z,44.90
2018-04-14T09:38:06.184Z,44.90
2018-04-14T09:39:11.367Z,44.60
2018-04-14T09:40:06.036Z,44.70
2018-04-14T09:41:13.434Z,45.20
2018-04-14T09:42:06.333Z,45.30
2018-04-14T09:43:08.660Z,45.50
2018-04-14T09:44:06.614Z,45.70
2018-04-14T09:45:08.706Z,45.50
2018-04-14T09:46:06.218Z,45.50
2018-04-14T09:47:06.599Z,45.70
2018-04-14T09:48:11.460Z,45.80
2018-04-14T09:49:05.902Z,46.10
2018-04-14T09:50:10.833Z,46.50
2018-04-14T09:51:06.499Z,46.50
2018-04-14T09:52:13.609Z,46.60
2018-04-14T09:53:06.442Z,46.60
2018-04-14T09:54:06.277Z,46.70
2018-04-14T09:55:08.611Z,47.10
2018-04-14T09:56:08.740Z,47.40
2018-04-14T09:57:11.499Z,47.60
2018-04-14T09:58:08.706Z,47.40
2018-04-14T09:59:06.237Z,47.30
2018-04-14T10:00:11.290Z,46.70
2018-04-14T10:01:06.004Z,46.70
2018-04-14T10:02:11.146Z,45.60
2018-04-14T10:03:08.225Z,45.90
2018-04-14T10:04:05.987Z,45.90
2018-04-14T10:05:06.598Z,46.10
2018-04-14T10:06:10.749Z,45.80
2018-04-14T10:07:09.112Z,45.90
2018-04-14T10:08:09.235Z,46.30
2018-04-14T10:09:10.780Z,46.20
2018-04-14T10:10:06.174Z,46.30
2018-04-14T10:11:05.718Z,46.00
2018-04-14T10:12:06.600Z,46.20
2018-04-14T10:13:05.753Z,45.50
2018-04-14T10:14:06.682Z,45.10
2018-04-14T10:15:06.055Z,44.90
2018-04-14T10:16:06.529Z,44.30
2018-04-14T10:17:10.750Z,44.30
2018-04-14T10:18:06.392Z,44.30
2018-04-14T10:19:08.665Z,44.80
2018-04-14T10:20:08.778Z,45.20
2018-04-14T10:21:09.224Z,44.90
2018-04-14T10:22:10.940Z,44.60
2018-04-14T10:23:11.514Z,44.40
2018-04-14T10:24:06.190Z,44.40
2018-04-14T10:25:09.581Z,43.60
2018-04-14T10:26:06.485Z,43.60
2018-04-14T10:27:11.602Z,43.80
2018-04-14T10:28:11.195Z,43.80
2018-04-14T10:29:06.525Z,43.20
2018-04-14T10:30:06.030Z,42.00
2018-04-14T10:31:05.746Z,41.30
2018-04-14T10:32:08.718Z,41.70
2018-04-14T10:33:11.260Z,41.80
2018-04-14T10:34:05.654Z,41.20
2018-04-14T10:35:05.661Z,41.00
2018-04-14T10:36:05.669Z,41.50
2018-04-14T10:37:11.497Z,42.60
2018-04-14T10:38:13.892Z,42.90
2018-04-14T10:39:06.360Z,42.80
2018-04-14T10:40:06.135Z,43.10
2018-04-14T10:41:05.712Z,43.40
2018-04-14T10:42:09.109Z,42.90
2018-04-14T10:43:10.856Z,42.80
2018-04-14T10:44:06.439Z,42.70
2018-04-14T10:45:06.324Z,42.40
2018-04-14T10:46:11.169Z,42.80
2018-04-14T10:47:11.792Z,42.20
2018-04-14T10:48:06.651Z,42.30
2018-04-14T10:49:05.820Z,41.80
2018-04-14T10:50:05.867Z,41.70
2018-04-14T10:51:10.636Z,41.40
2018-04-14T10:52:10.988Z,39.90
2018-04-14T10:53:05.903Z,39.90
2018-04-14T10:54:16.411Z,39.70
2018-04-14T10:55:05.867Z,39.60
2018-04-14T10:56:05.573Z,39.60
2018-04-14T10:57:09.142Z,39.20
2018-04-14T10:58:05.770Z,39.20
2018-04-14T10:59:06.273Z,38.80
2018-04-14T11:00:11.296Z,39.00
2018-04-14T11:01:05.968Z,39.60
2018-04-14T11:02:11.227Z,39.40
2018-04-14T11:03:05.994Z,39.40
2018-04-14T11:04:08.606Z,37.90
2018-04-14T11:05:08.667Z,38.30
2018-04-14T11:06:06.212Z,38.30
2018-04-14T11:07:06.028Z,38.50
2018-04-14T11:08:05.705Z,38.80
2018-04-14T11:09:05.945Z,39.20
2018-04-14T11:10:05.790Z,39.30
2018-04-14T11:11:09.915Z,39.10
2018-04-14T11:12:05.575Z,39.20
2018-04-14T11:13:05.785Z,39.00
2018-04-14T11:14:09.340Z,38.00
2018-04-14T11:15:09.189Z,38.20
2018-04-14T11:16:05.777Z,38.20
2018-04-14T11:17:08.316Z,38.00
2018-04-14T11:18:06.006Z,38.00
2018-04-14T11:19:07.114Z,38.30
2018-04-14T11:20:06.493Z,38.20
2018-04-14T11:21:11.291Z,38.20
2018-04-14T11:22:05.813Z,38.10
2018-04-14T11:23:09.076Z,37.50
2018-04-14T11:24:08.188Z,37.70
2018-04-14T11:25:06.190Z,37.70
2018-04-14T11:26:05.561Z,37.70
2018-04-14T11:27:05.834Z,38.10
2018-04-14T11:28:08.396Z,37.10
2018-04-14T11:29:05.891Z,37.20
2018-04-14T11:30:06.583Z,37.60
2018-04-14T11:31:06.152Z,37.60
2018-04-14T11:32:06.300Z,37.50
2018-04-14T11:33:05.951Z,37.20
2018-04-14T11:34:05.700Z,37.20
2018-04-14T11:35:06.408Z,37.40
2018-04-14T11:36:09.206Z,37.50
2018-04-14T11:37:08.945Z,38.00
2018-04-14T11:38:05.800Z,38.00
2018-04-14T11:39:06.350Z,38.20
2018-04-14T11:40:08.894Z,38.30
2018-04-14T11:41:06.472Z,38.40
2018-04-14T11:42:06.510Z,38.00
2018-04-14T11:43:05.945Z,38.20
2018-04-14T11:44:10.912Z,38.10
2018-04-14T11:45:06.851Z,38.20
2018-04-14T11:46:06.008Z,38.90
2018-04-14T11:47:11.390Z,39.60
2018-04-14T11:48:12.030Z,38.40
2018-04-14T11:49:05.557Z,38.30
2018-04-14T11:50:08.583Z,37.50
2018-04-14T11:51:13.902Z,37.00
2018-04-14T11:52:06.838Z,37.00
2018-04-14T11:53:11.511Z,37.10
2018-04-14T11:54:08.578Z,37.60
2018-04-14T11:55:05.633Z,37.60
2018-04-14T11:56:06.227Z,37.80
2018-04-14T11:57:08.430Z,37.70
2018-04-14T11:58:11.037Z,37.70
2018-04-14T11:59:11.578Z,38.60
2018-04-14T12:00:14.074Z,38.50
2018-04-14T12:01:10.666Z,38.50
2018-04-14T12:02:05.785Z,38.50
2018-04-14T12:03:05.951Z,38.30
2018-04-14T12:04:09.655Z,37.20
2018-04-14T12:05:09.212Z,37.10
2018-04-14T12:06:05.985Z,37.10
2018-04-14T12:07:11.180Z,37.70
2018-04-14T12:08:10.882Z,38.00
2018-04-14T12:09:11.316Z,38.00
2018-04-14T12:10:06.137Z,38.00
2018-04-14T12:11:06.395Z,38.30
2018-04-14T12:12:08.280Z,39.10
2018-04-14T12:13:10.941Z,38.80
2018-04-14T12:14:10.451Z,38.80
2018-04-14T12:15:05.937Z,38.60
2018-04-14T12:16:06.056Z,38.00
2018-04-14T12:17:06.012Z,37.30
2018-04-14T12:18:05.772Z,37.30
2018-04-14T12:19:10.737Z,36.90
2018-04-14T12:20:11.838Z,36.80
2018-04-14T12:21:11.490Z,36.00
2018-04-14T12:22:11.366Z,35.30
2018-04-14T12:23:06.195Z,35.20
2018-04-14T12:24:06.296Z,35.00
2018-04-14T12:25:08.979Z,36.20
2018-04-14T12:26:05.902Z,36.30
2018-04-14T12:27:06.221Z,36.60
2018-04-14T12:28:10.644Z,36.90
2018-04-14T12:29:06.247Z,36.90
2018-04-14T12:30:06.197Z,36.70
2018-04-14T12:31:11.002Z,36.80
2018-04-14T12:32:11.465Z,37.30
2018-04-14T12:33:11.011Z,37.50
2018-04-14T12:34:11.485Z,37.40
2018-04-14T12:35:08.466Z,37.30
2018-04-14T12:36:05.937Z,37.30
2018-04-14T12:37:11.555Z,37.00
2018-04-14T12:38:11.114Z,37.10
2018-04-14T12:39:09.094Z,37.20
2018-04-14T12:40:08.160Z,37.60
2018-04-14T12:41:05.670Z,37.60
2018-04-14T12:42:08.332Z,37.80
2018-04-14T12:43:06.383Z,37.80
2018-04-14T12:44:06.550Z,37.70
2018-04-14T12:45:06.408Z,37.00
2018-04-14T12:46:06.933Z,36.80
2018-04-14T12:47:11.485Z,37.30
2018-04-14T12:48:06.355Z,37.60
2018-04-14T12:49:09.066Z,38.00
2018-04-14T12:50:09.851Z,37.30
2018-04-14T12:51:06.044Z,37.20
2018-04-14T12:52:06.870Z,37.10